createdAt,value
2017-01-04T00:00:04.093Z,25.62
2017-01-04T00:00:32.249Z,25.59
2017-01-04T00:01:00.105Z,25.73
2017-01-04T00:01:28.005Z,25.69
2017-01-04T00:01:55.773Z,25.81
2017-01-04T00:02:23.571Z,25.81
2017-01-04T00:02:51.528Z,25.73
2017-01-04T00:03:19.264Z,25.66
2017-01-04T00:03:47.041Z,25.7
2017-01-04T00:04:14.841Z,25.75
2017-01-04T00:04:42.722Z,25.7
2017-01-04T00:05:10.691Z,25.63
2017-01-04T00:05:38.915Z,25.6
2017-01-04T00:06:06.983Z,25.6
2017-01-04T00:06:34.830Z,25.63
2017-01-04T00:07:02.664Z,25.73
2017-01-04T00:07:30.482Z,25.69
2017-01-04T00:07:58.288Z,25.72
2017-01-04T00:08:26.121Z,25.68
2017-01-04T00:08:53.947Z,25.7
2017-01-04T00:09:21.717Z,25.68
2017-01-04T00:09:49.504Z,25.66
2017-01-04T00:10:17.378Z,25.7
2017-01-04T00:10:45.443Z,25.7
2017-01-04T00:11:13.332Z,25.72
2017-01-04T00:11:41.206Z,25.69
2017-01-04T00:12:09.058Z,25.59
2017-01-04T00:12:36.923Z,25.63
2017-01-04T00:13:04.754Z,25.58
2017-01-04T00:13:32.731Z,25.63
2017-01-04T00:14:00.580Z,25.62
2017-01-04T00:14:28.491Z,25.63
2017-01-04T00:14:56.293Z,25.7
2017-01-04T00:15:24.092Z,25.72
2017-01-04T00:15:52.140Z,25.63
2017-01-04T00:16:19.926Z,25.58
2017-01-04T00:16:47.777Z,25.68
2017-01-04T00:17:15.689Z,25.62
2017-01-04T00:17:43.636Z,25.63
2017-01-04T00:18:11.382Z,25.63
2017-01-04T00:18:39.226Z,25.62
2017-01-04T00:19:07.043Z,25.62
2017-01-04T00:19:34.914Z,25.58
2017-01-04T00:20:02.713Z,25.59
2017-01-04T00:20:30.589Z,25.6
2017-01-04T00:20:58.565Z,25.66
2017-01-04T00:21:26.394Z,25.58
2017-01-04T00:21:54.209Z,25.58
2017-01-04T00:22:22.059Z,25.6
2017-01-04T00:22:49.898Z,25.7
2017-01-04T00:23:17.829Z,25.72
2017-01-04T00:23:45.610Z,25.6
2017-01-04T00:24:13.386Z,25.66
2017-01-04T00:24:41.178Z,25.6
2017-01-04T00:25:08.972Z,25.68
2017-01-04T00:25:36.842Z,25.69
2017-01-04T00:26:04.821Z,25.73
2017-01-04T00:26:32.681Z,25.7
2017-01-04T00:27:00.445Z,25.68
2017-01-04T00:27:28.249Z,25.58
2017-01-04T00:27:56.043Z,25.62
2017-01-04T00:28:23.878Z,25.6
2017-01-04T00:28:51.712Z,25.63
2017-01-04T00:29:19.566Z,25.59
2017-01-04T00:29:47.468Z,25.63
2017-01-04T00:30:15.227Z,25.65
2017-01-04T00:30:43.076Z,25.66
2017-01-04T00:31:11.183Z,25.53
2017-01-04T00:31:39.021Z,25.62
2017-01-04T00:32:06.929Z,25.63
2017-01-04T00:32:34.685Z,25.6
2017-01-04T00:33:02.531Z,25.54
2017-01-04T00:33:30.483Z,25.58
2017-01-04T00:33:58.272Z,25.51
2017-01-04T00:34:26.132Z,25.5
2017-01-04T00:34:54.014Z,25.46
2017-01-04T00:35:21.823Z,25.54
2017-01-04T00:35:49.911Z,25.5
2017-01-04T00:36:17.751Z,25.4
2017-01-04T00:36:45.693Z,25.43
2017-01-04T00:37:13.549Z,25.41
2017-01-04T00:37:41.350Z,25.4
2017-01-04T00:38:09.277Z,25.41
2017-01-04T00:38:37.209Z,25.28
2017-01-04T00:39:05.035Z,25.23
2017-01-04T00:39:32.877Z,25.26
2017-01-04T00:40:00.749Z,25.28
2017-01-04T00:40:28.581Z,25.31
2017-01-04T00:40:56.640Z,25.36
2017-01-04T00:41:24.500Z,25.33
2017-01-04T00:41:52.267Z,25.32
2017-01-04T00:42:20.133Z,25.28
2017-01-04T00:42:47.987Z,25.28
2017-01-04T00:43:15.806Z,25.16
2017-01-04T00:43:43.716Z,25.1
2017-01-04T00:44:11.483Z,25.14
2017-01-04T00:44:39.363Z,25.1
2017-01-04T00:45:07.124Z,25.03
2017-01-04T00:45:34.907Z,25.26
2017-01-04T00:46:03.040Z,25.14
2017-01-04T00:46:30.811Z,25.17
2017-01-04T00:46:58.616Z,25.17
2017-01-04T00:47:26.459Z,25.16
2017-01-04T00:47:54.261Z,25.11
2017-01-04T00:48:22.077Z,25.11
2017-01-04T00:48:50.045Z,25.14
2017-01-04T00:49:17.770Z,25.14
2017-01-04T00:49:45.552Z,25.13
2017-01-04T00:50:13.349Z,25.14
2017-01-04T00:50:41.302Z,25.16
2017-01-04T00:51:09.395Z,25.17
2017-01-04T00:51:37.285Z,25.16
2017-01-04T00:52:05.148Z,25.22
2017-01-04T00:52:32.974Z,25.21
2017-01-04T00:53:00.914Z,25.14
2017-01-04T00:53:28.807Z,25.18
2017-01-04T00:53:56.732Z,25.17
2017-01-04T00:54:24.550Z,25.21
2017-01-04T00:54:52.558Z,25.17
2017-01-04T00:55:20.447Z,25.14
2017-01-04T00:55:48.239Z,25.13
2017-01-04T00:56:16.349Z,25.1
2017-01-04T00:56:44.146Z,24.99
2017-01-04T00:57:11.911Z,25.1
2017-01-04T00:57:39.736Z,25.14
2017-01-04T00:58:07.517Z,25.13
2017-01-04T00:58:35.337Z,25.17
2017-01-04T00:59:03.202Z,25.17
2017-01-04T00:59:30.997Z,25.13
2017-01-04T00:59:58.924Z,25.13
2017-01-04T01:00:26.828Z,25.18
2017-01-04T01:00:54.653Z,25.16
2017-01-04T01:01:22.797Z,25.14
2017-01-04T01:01:50.734Z,25.18
2017-01-04T01:02:18.580Z,25.18
2017-01-04T01:02:46.325Z,25.23
2017-01-04T01:03:14.163Z,25.28
2017-01-04T01:03:41.954Z,25.33
2017-01-04T01:04:09.791Z,25.29
2017-01-04T01:04:37.646Z,25.35
2017-01-04T01:05:05.601Z,25.25
2017-01-04T01:05:33.464Z,25.35
2017-01-04T01:06:01.488Z,25.28
2017-01-04T01:06:29.309Z,25.33
2017-01-04T01:06:57.147Z,25.35
2017-01-04T01:07:25.055Z,25.32
2017-01-04T01:07:52.880Z,25.33
2017-01-04T01:08:20.711Z,25.33
2017-01-04T01:08:48.571Z,25.26
2017-01-04T01:09:16.416Z,25.14
2017-01-04T01:09:44.242Z,25.1
2017-01-04T01:10:12.184Z,25.03
2017-01-04T01:10:39.983Z,24.99
2017-01-04T01:11:07.984Z,25.08
2017-01-04T01:11:35.792Z,25.06
2017-01-04T01:12:03.653Z,25.04
2017-01-04T01:12:31.435Z,25.06
2017-01-04T01:12:59.230Z,25.14
2017-01-04T01:13:27.120Z,25.14
2017-01-04T01:13:54.944Z,25.08
2017-01-04T01:14:22.725Z,25.17
2017-01-04T01:14:50.543Z,25.11
2017-01-04T01:15:18.466Z,25.08
2017-01-04T01:15:46.361Z,25.13
2017-01-04T01:16:14.387Z,24.98
2017-01-04T01:16:42.221Z,25.01
2017-01-04T01:17:09.974Z,25.07
2017-01-04T01:17:37.820Z,25.03
2017-01-04T01:18:05.712Z,24.99
2017-01-04T01:18:33.646Z,25.03
2017-01-04T01:19:01.422Z,25.03
2017-01-04T01:19:29.327Z,25.1
2017-01-04T01:19:57.239Z,25.1
2017-01-04T01:20:25.055Z,25.16
2017-01-04T01:20:52.821Z,25.17
2017-01-04T01:21:20.924Z,25.11
2017-01-04T01:21:48.829Z,25.22
2017-01-04T01:22:16.614Z,25.08
2017-01-04T01:22:44.367Z,25.13
2017-01-04T01:23:12.146Z,25.18
2017-01-04T01:23:40.046Z,25.08
2017-01-04T01:24:07.880Z,25.22
2017-01-04T01:24:35.642Z,25.17
2017-01-04T01:25:03.446Z,25.18
2017-01-04T01:25:31.239Z,25.28
2017-01-04T01:25:59.160Z,25.28
2017-01-04T01:26:27.147Z,25.23
2017-01-04T01:26:54.943Z,25.31
2017-01-04T01:27:22.775Z,25.29
2017-01-04T01:27:50.533Z,25.33
2017-01-04T01:28:18.358Z,25.28
2017-01-04T01:28:46.238Z,25.21
2017-01-04T01:29:14.068Z,25.22
2017-01-04T01:29:41.837Z,25.21
2017-01-04T01:30:09.642Z,25.17
2017-01-04T01:30:37.484Z,25.17
2017-01-04T01:31:05.342Z,25.32
2017-01-04T01:31:33.418Z,25.25
2017-01-04T01:32:01.330Z,25.28
2017-01-04T01:32:29.156Z,25.26
2017-01-04T01:32:57.041Z,25.31
2017-01-04T01:33:24.911Z,25.35
2017-01-04T01:33:52.776Z,25.33
2017-01-04T01:34:20.643Z,25.4
2017-01-04T01:34:48.409Z,25.41
2017-01-04T01:35:16.278Z,25.41
2017-01-04T01:35:44.187Z,25.41
2017-01-04T01:36:12.055Z,25.48
2017-01-04T01:36:40.070Z,25.41
2017-01-04T01:37:07.884Z,25.44
2017-01-04T01:37:35.685Z,25.4
2017-01-04T01:38:03.466Z,25.4
2017-01-04T01:38:31.315Z,25.44
2017-01-04T01:38:59.094Z,25.41
2017-01-04T01:39:27.070Z,25.41
2017-01-04T01:39:54.883Z,25.43
2017-01-04T01:40:22.669Z,25.38
2017-01-04T01:40:50.481Z,25.44
2017-01-04T01:41:18.297Z,25.41
2017-01-04T01:41:46.398Z,25.41
2017-01-04T01:42:14.154Z,25.33
2017-01-04T01:42:41.979Z,25.31
2017-01-04T01:43:09.831Z,25.35
2017-01-04T01:43:37.665Z,25.26
2017-01-04T01:44:05.450Z,25.29
2017-01-04T01:44:33.287Z,25.26
2017-01-04T01:45:01.130Z,25.21
2017-01-04T01:45:28.945Z,25.32
2017-01-04T01:45:56.710Z,25.29
2017-01-04T01:46:24.746Z,25.25
2017-01-04T01:46:52.506Z,25.31
2017-01-04T01:47:20.423Z,25.26
2017-01-04T01:47:48.304Z,25.31
2017-01-04T01:48:16.102Z,25.31
2017-01-04T01:48:43.930Z,25.36
2017-01-04T01:49:11.769Z,25.4
2017-01-04T01:49:39.599Z,25.35
2017-01-04T01:50:07.370Z,25.31
2017-01-04T01:50:35.233Z,25.4
2017-01-04T01:51:03.056Z,25.32
2017-01-04T01:51:31.160Z,25.41
2017-01-04T01:51:58.979Z,25.33
2017-01-04T01:52:26.781Z,25.43
2017-01-04T01:52:54.603Z,25.38
2017-01-04T01:53:22.384Z,25.41
2017-01-04T01:53:50.290Z,25.41
2017-01-04T01:54:18.102Z,25.4
2017-01-04T01:54:46.021Z,25.33
2017-01-04T01:55:13.856Z,25.31
2017-01-04T01:55:41.637Z,25.29
2017-01-04T01:56:09.585Z,25.28
2017-01-04T01:56:37.546Z,25.17
2017-01-04T01:57:05.378Z,25.17
2017-01-04T01:57:33.232Z,25.22
2017-01-04T01:58:01.142Z,25.17
2017-01-04T01:58:29.012Z,25.16
2017-01-04T01:58:56.812Z,25.16
2017-01-04T01:59:24.542Z,25.16
2017-01-04T01:59:52.484Z,25.16
2017-01-04T02:00:20.289Z,25.23
2017-01-04T02:00:48.204Z,25.18
2017-01-04T02:01:16.056Z,25.23
2017-01-04T02:01:44.091Z,25.16
2017-01-04T02:02:11.956Z,25.14
2017-01-04T02:02:39.787Z,25.17
2017-01-04T02:03:07.577Z,25.22
2017-01-04T02:03:35.337Z,25.29
2017-01-04T02:04:03.118Z,25.16
2017-01-04T02:04:30.878Z,25.26
2017-01-04T02:04:58.795Z,25.18
2017-01-04T02:05:26.573Z,25.23
2017-01-04T02:05:54.436Z,25.28
2017-01-04T02:06:22.302Z,25.13
2017-01-04T02:06:50.336Z,25.17
2017-01-04T02:07:18.128Z,25.22
2017-01-04T02:07:45.988Z,25.33
2017-01-04T02:08:13.761Z,25.26
2017-01-04T02:08:41.630Z,25.28
2017-01-04T02:09:09.450Z,25.29
2017-01-04T02:09:37.312Z,25.31
2017-01-04T02:10:05.114Z,25.25
2017-01-04T02:10:32.958Z,25.23
2017-01-04T02:11:00.732Z,25.18
2017-01-04T02:11:28.512Z,25.21
2017-01-04T02:11:56.547Z,25.14
2017-01-04T02:12:24.449Z,25.14
2017-01-04T02:12:52.328Z,25.1
2017-01-04T02:13:20.141Z,25.17
2017-01-04T02:13:47.926Z,25.11
2017-01-04T02:14:15.679Z,25.13
2017-01-04T02:14:43.501Z,25.14
2017-01-04T02:15:11.352Z,25.11
2017-01-04T02:15:39.281Z,25.23
2017-01-04T02:16:07.123Z,25.22
2017-01-04T02:16:35.245Z,25.16
2017-01-04T02:17:03.101Z,25.16
2017-01-04T02:17:30.915Z,25.13
2017-01-04T02:17:58.724Z,25.14
2017-01-04T02:18:26.582Z,25.21
2017-01-04T02:18:54.385Z,25.18
2017-01-04T02:19:22.232Z,25.17
2017-01-04T02:19:50.041Z,25.14
2017-01-04T02:20:17.911Z,25.14
2017-01-04T02:20:45.786Z,25.21
2017-01-04T02:21:13.618Z,25.16
2017-01-04T02:21:41.655Z,25.22
2017-01-04T02:22:09.480Z,25.17
2017-01-04T02:22:37.226Z,25.16
2017-01-04T02:23:05.123Z,25.13
2017-01-04T02:23:32.888Z,25.18
2017-01-04T02:24:00.817Z,25.13
2017-01-04T02:24:28.607Z,25.11
2017-01-04T02:24:56.468Z,25.13
2017-01-04T02:25:24.296Z,25.16
2017-01-04T02:25:52.102Z,25.08
2017-01-04T02:26:19.936Z,25.03
2017-01-04T02:26:47.923Z,25.06
2017-01-04T02:27:15.740Z,25.01
2017-01-04T02:27:43.537Z,25.08
2017-01-04T02:28:11.323Z,25.01
2017-01-04T02:28:39.175Z,25.11
2017-01-04T02:29:06.931Z,24.99
2017-01-04T02:29:34.967Z,24.99
2017-01-04T02:30:02.732Z,25.06
2017-01-04T02:30:30.543Z,25.03
2017-01-04T02:30:58.366Z,24.99
2017-01-04T02:31:26.207Z,25.04
2017-01-04T02:31:54.367Z,25.14
2017-01-04T02:32:22.106Z,25.1
2017-01-04T02:32:49.983Z,25.07
2017-01-04T02:33:17.779Z,25.01
2017-01-04T02:33:45.633Z,25.07
2017-01-04T02:34:13.578Z,25.01
2017-01-04T02:34:41.502Z,25.06
2017-01-04T02:35:09.325Z,25.1
2017-01-04T02:35:37.098Z,24.92
2017-01-04T02:36:04.896Z,25.03
2017-01-04T02:36:32.644Z,25.07
2017-01-04T02:37:00.777Z,25.04
2017-01-04T02:37:28.614Z,25.01
2017-01-04T02:37:56.444Z,24.99
2017-01-04T02:38:24.217Z,25.03
2017-01-04T02:38:52.066Z,25.06
2017-01-04T02:39:19.931Z,25.06
2017-01-04T02:39:47.745Z,25.06
2017-01-04T02:40:15.597Z,25.03
2017-01-04T02:40:43.367Z,24.98
2017-01-04T02:41:11.218Z,25.06
2017-01-04T02:41:39.170Z,25.03
2017-01-04T02:42:07.193Z,25.1
2017-01-04T02:42:35.040Z,24.99
2017-01-04T02:43:02.953Z,25.06
2017-01-04T02:43:30.820Z,25.14
2017-01-04T02:43:58.641Z,25.13
2017-01-04T02:44:26.544Z,25.13
2017-01-04T02:44:54.340Z,24.98
2017-01-04T02:45:22.157Z,25.03
2017-01-04T02:45:50.031Z,25.06
2017-01-04T02:46:17.826Z,24.98
2017-01-04T02:46:45.709Z,25.14
2017-01-04T02:47:13.812Z,25.14
2017-01-04T02:47:41.702Z,25.01
2017-01-04T02:48:09.510Z,24.96
2017-01-04T02:48:37.436Z,25.01
2017-01-04T02:49:05.222Z,25.03
2017-01-04T02:49:33.087Z,25.06
2017-01-04T02:50:00.943Z,24.98
2017-01-04T02:50:28.719Z,24.99
2017-01-04T02:50:56.556Z,25.1
2017-01-04T02:51:24.380Z,25.04
2017-01-04T02:51:52.374Z,25.14
2017-01-04T02:52:20.259Z,25.14
2017-01-04T02:52:48.032Z,25.13
2017-01-04T02:53:15.843Z,25.1
2017-01-04T02:53:43.652Z,25.13
2017-01-04T02:54:11.603Z,25.13
2017-01-04T02:54:39.384Z,25.16
2017-01-04T02:55:07.228Z,25.13
2017-01-04T02:55:35.107Z,25.14
2017-01-04T02:56:02.915Z,25.1
2017-01-04T02:56:30.773Z,25.14
2017-01-04T02:56:58.871Z,25.1
2017-01-04T02:57:26.686Z,25.13
2017-01-04T02:57:54.475Z,25.11
2017-01-04T02:58:22.239Z,25.14
2017-01-04T02:58:50.010Z,25.18
2017-01-04T02:59:17.801Z,25.1
2017-01-04T02:59:45.709Z,25.13
2017-01-04T03:00:13.574Z,25.14
2017-01-04T03:00:41.427Z,25.17
2017-01-04T03:01:09.218Z,25.17
2017-01-04T03:01:37.040Z,25.13
2017-01-04T03:02:05.040Z,25.18
2017-01-04T03:02:32.809Z,25.11
2017-01-04T03:03:00.572Z,25.07
2017-01-04T03:03:28.327Z,25.1
2017-01-04T03:03:56.108Z,25.13
2017-01-04T03:04:23.925Z,25.13
2017-01-04T03:04:51.666Z,25.11
2017-01-04T03:05:19.513Z,25.11
2017-01-04T03:05:47.306Z,25.13
2017-01-04T03:06:15.173Z,25.08
2017-01-04T03:06:43.047Z,25.13
2017-01-04T03:07:11.029Z,25.16
2017-01-04T03:07:38.888Z,25.23
2017-01-04T03:08:06.719Z,25.21
2017-01-04T03:08:34.606Z,25.11
2017-01-04T03:09:02.590Z,25.14
2017-01-04T03:09:30.385Z,25.18
2017-01-04T03:09:58.193Z,25.26
2017-01-04T03:10:26.004Z,25.26
2017-01-04T03:10:53.757Z,25.25
2017-01-04T03:11:21.566Z,25.28
2017-01-04T03:11:49.419Z,25.26
2017-01-04T03:12:17.412Z,25.16
2017-01-04T03:12:45.249Z,25.14
2017-01-04T03:13:13.037Z,25.11
2017-01-04T03:13:40.853Z,25.16
2017-01-04T03:14:08.623Z,25.18
2017-01-04T03:14:36.439Z,25.16
2017-01-04T03:15:04.257Z,25.1
2017-01-04T03:15:32.672Z,25.16
2017-01-04T03:16:00.426Z,25.14
2017-01-04T03:16:28.335Z,25.14
2017-01-04T03:16:56.159Z,25.08
2017-01-04T03:17:24.209Z,25.14
2017-01-04T03:17:52.078Z,25.18
2017-01-04T03:18:19.981Z,25.17
2017-01-04T03:18:47.818Z,25.16
2017-01-04T03:19:15.626Z,25.17
2017-01-04T03:19:43.453Z,25.06
2017-01-04T03:20:11.236Z,25.1
2017-01-04T03:20:39.005Z,25.08
2017-01-04T03:21:06.853Z,25.1
2017-01-04T03:21:34.609Z,25.01
2017-01-04T03:22:02.520Z,25.03
2017-01-04T03:22:30.571Z,25.1
2017-01-04T03:22:58.455Z,25.1
2017-01-04T03:23:26.459Z,25.11
2017-01-04T03:23:54.428Z,24.98
2017-01-04T03:24:22.250Z,25.07
2017-01-04T03:24:50.077Z,25.01
2017-01-04T03:25:17.903Z,25.07
2017-01-04T03:25:45.674Z,25.03
2017-01-04T03:26:13.497Z,25.06
2017-01-04T03:26:41.323Z,25.03
2017-01-04T03:27:09.335Z,25.01
2017-01-04T03:27:37.276Z,25.03
2017-01-04T03:28:05.116Z,24.99
2017-01-04T03:28:32.916Z,24.96
2017-01-04T03:29:00.773Z,24.99
2017-01-04T03:29:28.525Z,25.01
2017-01-04T03:29:56.300Z,25.04
2017-01-04T03:30:24.069Z,24.91
2017-01-04T03:30:51.970Z,24.93
2017-01-04T03:31:19.743Z,24.93
2017-01-04T03:31:47.578Z,24.95
2017-01-04T03:32:15.789Z,24.89
2017-01-04T03:32:43.599Z,25.01
2017-01-04T03:33:11.495Z,25.06
2017-01-04T03:33:39.269Z,24.96
2017-01-04T03:34:07.066Z,25.03
2017-01-04T03:34:34.869Z,24.91
2017-01-04T03:35:02.725Z,24.92
2017-01-04T03:35:30.483Z,25.03
2017-01-04T03:35:58.368Z,24.96
2017-01-04T03:36:26.165Z,24.89
2017-01-04T03:36:53.937Z,24.91
2017-01-04T03:37:21.938Z,25.01
2017-01-04T03:37:49.699Z,24.95
2017-01-04T03:38:17.571Z,25.06
2017-01-04T03:38:45.432Z,25.07
2017-01-04T03:39:13.281Z,25.03
2017-01-04T03:39:41.202Z,25.03
2017-01-04T03:40:09.070Z,24.99
2017-01-04T03:40:36.893Z,25.07
2017-01-04T03:41:04.758Z,25.04
2017-01-04T03:41:32.562Z,25.04
2017-01-04T03:42:00.436Z,25.03
2017-01-04T03:42:28.377Z,25.03
2017-01-04T03:42:56.161Z,25.06
2017-01-04T03:43:24.001Z,25.16
2017-01-04T03:43:51.747Z,25.16
2017-01-04T03:44:19.650Z,25.14
2017-01-04T03:44:47.541Z,25.13
2017-01-04T03:45:15.423Z,24.99
2017-01-04T03:45:43.266Z,25.11
2017-01-04T03:46:11.053Z,25.1
2017-01-04T03:46:38.886Z,25.13
2017-01-04T03:47:06.710Z,25.22
2017-01-04T03:47:34.649Z,25.16
2017-01-04T03:48:02.441Z,25.13
2017-01-04T03:48:30.254Z,25.16
2017-01-04T03:48:58.083Z,25.16
2017-01-04T03:49:25.904Z,24.99
2017-01-04T03:49:53.655Z,24.99
2017-01-04T03:50:21.466Z,25.1
2017-01-04T03:50:49.369Z,25.08
2017-01-04T03:51:17.148Z,25.1
2017-01-04T03:51:45.058Z,25.16
2017-01-04T03:52:12.866Z,25.11
2017-01-04T03:52:40.914Z,25.08
2017-01-04T03:53:08.833Z,25.13
2017-01-04T03:53:36.624Z,25.16
2017-01-04T03:54:04.424Z,25.14
2017-01-04T03:54:32.221Z,25.23
2017-01-04T03:55:00.028Z,25.14
2017-01-04T03:55:27.874Z,25.23
2017-01-04T03:55:55.625Z,25.11
2017-01-04T03:56:23.416Z,25.14
2017-01-04T03:56:51.281Z,25.14
2017-01-04T03:57:19.070Z,25.14
2017-01-04T03:57:47.246Z,24.99
2017-01-04T03:58:15.043Z,25.11
2017-01-04T03:58:42.800Z,25.06
2017-01-04T03:59:10.728Z,25.01
2017-01-04T03:59:38.512Z,24.98
2017-01-04T04:00:06.313Z,24.98
2017-01-04T04:00:34.124Z,24.91
2017-01-04T04:01:01.966Z,24.92
2017-01-04T04:01:29.764Z,24.91
2017-01-04T04:01:57.579Z,24.95
2017-01-04T04:02:25.527Z,24.93
2017-01-04T04:02:53.559Z,24.95
2017-01-04T04:03:21.339Z,24.89
2017-01-04T04:03:49.139Z,24.92
2017-01-04T04:04:17.021Z,24.89
2017-01-04T04:04:44.775Z,24.92
2017-01-04T04:05:12.589Z,24.96
2017-01-04T04:05:40.370Z,24.91
2017-01-04T04:06:08.135Z,24.93
2017-01-04T04:06:35.972Z,24.95
2017-01-04T04:07:03.823Z,24.98
2017-01-04T04:07:31.629Z,24.88
2017-01-04T04:07:59.738Z,24.88
2017-01-04T04:08:27.575Z,24.88
2017-01-04T04:08:55.411Z,24.8
2017-01-04T04:09:23.210Z,24.86
2017-01-04T04:09:51.055Z,24.84
2017-01-04T04:10:18.876Z,24.77
2017-01-04T04:10:46.693Z,24.77
2017-01-04T04:11:14.504Z,24.89
2017-01-04T04:11:42.308Z,24.86
2017-01-04T04:12:10.241Z,24.88
2017-01-04T04:12:37.997Z,24.88
2017-01-04T04:13:06.121Z,24.86
2017-01-04T04:13:33.979Z,24.92
2017-01-04T04:14:01.774Z,24.93
2017-01-04T04:14:29.726Z,24.91
2017-01-04T04:14:57.629Z,24.96
2017-01-04T04:15:25.487Z,24.96
2017-01-04T04:15:53.265Z,24.93
2017-01-04T04:16:21.123Z,24.89
2017-01-04T04:16:49.044Z,24.89
2017-01-04T04:17:16.963Z,24.98
2017-01-04T04:17:44.923Z,24.91
2017-01-04T04:18:12.781Z,25.01
2017-01-04T04:18:40.645Z,25.03
2017-01-04T04:19:08.510Z,25.06
2017-01-04T04:19:36.341Z,25.04
2017-01-04T04:20:04.137Z,25.06
2017-01-04T04:20:31.893Z,24.98
2017-01-04T04:20:59.682Z,25.06
2017-01-04T04:21:27.507Z,24.98
2017-01-04T04:21:55.356Z,25.1
2017-01-04T04:22:23.235Z,25.1
2017-01-04T04:22:51.233Z,24.99
2017-01-04T04:23:19.050Z,25.03
2017-01-04T04:23:46.940Z,25.04
2017-01-04T04:24:14.711Z,25.17
2017-01-04T04:24:42.485Z,25.04
2017-01-04T04:25:10.337Z,25.03
2017-01-04T04:25:38.141Z,25.04
2017-01-04T04:26:05.968Z,25.01
2017-01-04T04:26:33.727Z,25.04
2017-01-04T04:27:01.572Z,25.03
2017-01-04T04:27:29.442Z,25.01
2017-01-04T04:27:57.394Z,25.07
2017-01-04T04:28:25.241Z,25.01
2017-01-04T04:28:53.119Z,25.06
2017-01-04T04:29:20.919Z,25.07
2017-01-04T04:29:48.676Z,25.03
2017-01-04T04:30:16.519Z,24.96
2017-01-04T04:30:44.456Z,24.99
2017-01-04T04:31:12.223Z,25.03
2017-01-04T04:31:40.076Z,25.07
2017-01-04T04:32:07.951Z,25.01
2017-01-04T04:32:35.804Z,24.96
2017-01-04T04:33:03.774Z,25.07
2017-01-04T04:33:31.582Z,25.06
2017-01-04T04:33:59.379Z,24.96
2017-01-04T04:34:27.294Z,24.91
2017-01-04T04:34:55.067Z,24.91
2017-01-04T04:35:22.896Z,25.01
2017-01-04T04:35:50.678Z,24.85
2017-01-04T04:36:18.623Z,24.99
2017-01-04T04:36:46.515Z,24.95
2017-01-04T04:37:14.267Z,24.93
2017-01-04T04:37:42.070Z,24.88
2017-01-04T04:38:10.053Z,24.86
2017-01-04T04:38:37.882Z,24.86
2017-01-04T04:39:05.702Z,24.84
2017-01-04T04:39:33.561Z,24.86
2017-01-04T04:40:01.445Z,24.86
2017-01-04T04:40:29.293Z,24.81
2017-01-04T04:40:57.095Z,24.78
2017-01-04T04:41:24.927Z,24.73
2017-01-04T04:41:52.712Z,24.8
2017-01-04T04:42:20.492Z,24.76
2017-01-04T04:42:48.255Z,24.76
2017-01-04T04:43:16.291Z,24.68
2017-01-04T04:43:44.233Z,24.69
2017-01-04T04:44:12.082Z,24.66
2017-01-04T04:44:39.983Z,24.69
2017-01-04T04:45:07.824Z,24.73
2017-01-04T04:45:35.722Z,24.58
2017-01-04T04:46:03.638Z,24.68
2017-01-04T04:46:31.566Z,24.69
2017-01-04T04:46:59.666Z,24.68
2017-01-04T04:47:27.595Z,24.57
2017-01-04T04:47:55.444Z,24.57
2017-01-04T04:48:23.492Z,24.65
2017-01-04T04:48:51.405Z,24.58
2017-01-04T04:49:19.179Z,24.61
2017-01-04T04:49:47.105Z,24.65
2017-01-04T04:50:14.875Z,24.61
2017-01-04T04:50:42.665Z,24.54
2017-01-04T04:51:10.538Z,24.55
2017-01-04T04:51:38.394Z,24.53
2017-01-04T04:52:06.209Z,24.6
2017-01-04T04:52:33.985Z,24.54
2017-01-04T04:53:02.048Z,24.55
2017-01-04T04:53:29.891Z,24.4
2017-01-04T04:53:57.729Z,24.43
2017-01-04T04:54:25.525Z,24.45
2017-01-04T04:54:53.318Z,24.36
2017-01-04T04:55:21.176Z,24.32
2017-01-04T04:55:48.978Z,24.35
2017-01-04T04:56:16.923Z,24.33
2017-01-04T04:56:44.727Z,24.29
2017-01-04T04:57:12.557Z,24.24
2017-01-04T04:57:40.393Z,24.26
2017-01-04T04:58:08.388Z,24.3
2017-01-04T04:58:36.234Z,24.3
2017-01-04T04:59:04.027Z,24.33
2017-01-04T04:59:31.821Z,24.32
2017-01-04T04:59:59.669Z,24.35
2017-01-04T05:00:27.476Z,24.33
2017-01-04T05:00:55.273Z,24.42
2017-01-04T05:01:23.068Z,24.38
2017-01-04T05:01:50.889Z,24.35
2017-01-04T05:02:18.713Z,24.32
2017-01-04T05:02:46.495Z,24.32
2017-01-04T05:03:14.554Z,24.39
2017-01-04T05:03:42.463Z,24.38
2017-01-04T05:04:10.248Z,24.39
2017-01-04T05:04:38.057Z,24.39
2017-01-04T05:05:05.882Z,24.33
2017-01-04T05:05:33.758Z,24.32
2017-01-04T05:06:01.552Z,24.35
2017-01-04T05:06:29.328Z,24.4
2017-01-04T05:06:57.156Z,24.42
2017-01-04T05:07:25.012Z,24.38
2017-01-04T05:07:52.848Z,24.4
2017-01-04T05:08:20.875Z,24.4
2017-01-04T05:08:48.676Z,24.38
2017-01-04T05:09:16.529Z,24.43
2017-01-04T05:09:44.361Z,24.39
2017-01-04T05:10:12.223Z,24.4
2017-01-04T05:10:40.151Z,24.43
2017-01-04T05:11:07.943Z,24.4
2017-01-04T05:11:35.802Z,24.47
2017-01-04T05:12:03.696Z,24.39
2017-01-04T05:12:31.499Z,24.45
2017-01-04T05:12:59.293Z,24.43
2017-01-04T05:13:27.309Z,24.42
2017-01-04T05:13:55.159Z,24.36
2017-01-04T05:14:22.947Z,24.36
2017-01-04T05:14:50.746Z,24.42
2017-01-04T05:15:18.602Z,24.4
2017-01-04T05:15:46.392Z,24.45
2017-01-04T05:16:14.178Z,24.4
2017-01-04T05:16:42.105Z,24.38
2017-01-04T05:17:09.891Z,24.33
2017-01-04T05:17:37.712Z,24.32
2017-01-04T05:18:05.520Z,24.4
2017-01-04T05:18:33.610Z,24.33
2017-01-04T05:19:01.417Z,24.33
2017-01-04T05:19:29.230Z,24.39
2017-01-04T05:19:57.007Z,24.45
2017-01-04T05:20:24.859Z,24.4
2017-01-04T05:20:52.649Z,24.4
2017-01-04T05:21:20.525Z,24.42
2017-01-04T05:21:48.299Z,24.38
2017-01-04T05:22:16.178Z,24.4
2017-01-04T05:22:43.974Z,24.36
2017-01-04T05:23:11.829Z,24.35
2017-01-04T05:23:39.868Z,24.4
2017-01-04T05:24:07.726Z,24.42
2017-01-04T05:24:35.581Z,24.39
2017-01-04T05:25:03.419Z,24.4
2017-01-04T05:25:31.263Z,24.4
2017-01-04T05:25:59.148Z,24.43
2017-01-04T05:26:26.936Z,24.45
2017-01-04T05:26:54.734Z,24.42
2017-01-04T05:27:22.589Z,24.47
2017-01-04T05:27:50.367Z,24.45
2017-01-04T05:28:18.233Z,24.4
2017-01-04T05:28:46.241Z,24.39
2017-01-04T05:29:14.058Z,24.42
2017-01-04T05:29:41.872Z,24.48
2017-01-04T05:30:09.649Z,24.45
2017-01-04T05:30:37.517Z,24.43
2017-01-04T05:31:05.423Z,24.43
2017-01-04T05:31:33.237Z,24.57
2017-01-04T05:32:01.018Z,24.53
2017-01-04T05:32:28.821Z,24.51
2017-01-04T05:32:56.735Z,24.53
2017-01-04T05:33:24.772Z,24.48
2017-01-04T05:33:52.623Z,24.45
2017-01-04T05:34:20.384Z,24.57
2017-01-04T05:34:48.110Z,24.45
2017-01-04T05:35:15.866Z,24.43
2017-01-04T05:35:43.760Z,24.45
2017-01-04T05:36:11.613Z,24.42
2017-01-04T05:36:39.416Z,24.45
2017-01-04T05:37:07.194Z,24.48
2017-01-04T05:37:35.090Z,24.42
2017-01-04T05:38:02.874Z,24.4
2017-01-04T05:38:30.908Z,24.4
2017-01-04T05:38:58.761Z,24.42
2017-01-04T05:39:26.587Z,24.42
2017-01-04T05:39:54.419Z,24.45
2017-01-04T05:40:22.200Z,24.51
2017-01-04T05:40:49.945Z,24.42
2017-01-04T05:41:17.755Z,24.42
2017-01-04T05:41:45.676Z,24.43
2017-01-04T05:42:13.567Z,24.45
2017-01-04T05:42:41.482Z,24.51
2017-01-04T05:43:09.372Z,24.53
2017-01-04T05:43:37.435Z,24.45
2017-01-04T05:44:05.241Z,24.4
2017-01-04T05:44:33.133Z,24.43
2017-01-04T05:45:00.985Z,24.42
2017-01-04T05:45:28.803Z,24.45
2017-01-04T05:45:56.738Z,24.47
2017-01-04T05:46:24.514Z,24.39
2017-01-04T05:46:52.360Z,24.42
2017-01-04T05:47:20.255Z,24.42
2017-01-04T05:47:48.023Z,24.43
2017-01-04T05:48:15.853Z,24.4
2017-01-04T05:48:44.021Z,24.4
2017-01-04T05:49:12.018Z,24.36
2017-01-04T05:49:39.776Z,24.39
2017-01-04T05:50:07.673Z,24.4
2017-01-04T05:50:35.456Z,24.43
2017-01-04T05:51:03.374Z,24.5
2017-01-04T05:51:31.171Z,24.45
2017-01-04T05:51:58.975Z,24.47
2017-01-04T05:52:26.851Z,24.45
2017-01-04T05:52:54.689Z,24.47
2017-01-04T05:53:22.612Z,24.42
2017-01-04T05:53:50.615Z,24.39
2017-01-04T05:54:18.494Z,24.43
2017-01-04T05:54:46.405Z,24.48
2017-01-04T05:55:14.269Z,24.4
2017-01-04T05:55:42.154Z,24.4
2017-01-04T05:56:09.977Z,24.39
2017-01-04T05:56:37.868Z,24.4
2017-01-04T05:57:05.665Z,24.43
2017-01-04T05:57:33.465Z,24.43
2017-01-04T05:58:01.275Z,24.4
2017-01-04T05:58:29.116Z,24.38
2017-01-04T05:58:57.078Z,24.38
2017-01-04T05:59:24.869Z,24.39
2017-01-04T05:59:52.651Z,24.51